Time;durP1;ratioP1;P1;durP2;ratioP2;P2;SDS_P1;SDS_P2;PMS_P1;PMS_P2;Temp;Humidity;BMP_temperature;BMP_pressure;BME280_temperature;BME280_humidity;BME280_pressure;Samples;Min_cycle;Max_cycle;Signal;HPM_P1;HPM_P2
2021/03/17 00:01:36;;;;;;;;;;;;;;;16.26;39.12;100447.00;4412579;32;19999;-56
2021/03/17 00:04:02;;;;;;;;;;;;;;;16.36;38.92;100448.16;4413814;32;20005;-54
2021/03/17 00:06:28;;;;;;;;;;;;;;;16.35;38.99;100443.75;4413681;32;20005;-53
2021/03/17 00:08:54;;;;;;;;;;;;;;;16.30;39.12;100439.28;4413367;32;19958;-56
2021/03/17 00:11:20;;;;;;;;;;;;;;;16.28;38.97;100443.59;4412057;32;19954;-55
2021/03/17 00:13:46;;;;;;;;;;;;;;;16.27;39.08;100439.19;4413428;32;19990;-55
2021/03/17 00:16:12;;;;;;;;;;;;;;;16.22;39.16;100435.50;4413380;32;19962;-55
2021/03/17 00:18:37;;;;;;;;;;;;;;;16.24;39.30;100439.09;4412834;32;19973;-54
2021/03/17 00:21:03;;;;;;;;;;;;;;;16.14;39.40;100426.53;4413237;32;19951;-55
2021/03/17 00:23:29;;;;;;;;;;;;;;;16.25;39.16;100439.97;4413042;32;20576;-54
2021/03/17 00:25:55;;;;;;;;;;;;;;;16.24;39.15;100433.84;4411119;32;19994;-55
2021/03/17 00:28:21;;;;;;;;;;;;;;;16.23;39.13;100436.41;4405040;32;19954;-55
2021/03/17 00:30:47;;;;;;;;;;;;;;;16.22;39.24;100434.63;4414432;32;20015;-53
2021/03/17 00:33:13;;;;;;;;;;;;;;;16.14;39.40;100437.91;4413635;32;19984;-55
2021/03/17 00:35:39;;;;;;;;;;;;;;;16.09;39.49;100433.34;4401192;32;19992;-55
2021/03/17 00:38:04;;;;;;;;;;;;;;;16.13;39.41;100435.25;4411900;32;19949;-55
2021/03/17 00:40:30;;;;;;;;;;;;;;;16.21;39.28;100433.72;4414582;32;20392;-54
2021/03/17 00:42:56;;;;;;;;;;;;;;;16.10;39.51;100432.50;4413922;32;20020;-55
2021/03/17 00:45:22;;;;;;;;;;;;;;;16.18;39.33;100427.50;4412326;32;20640;-54
2021/03/17 00:47:48;;;;;;;;;;;;;;;16.19;39.26;100430.16;4413622;32;20105;-56
2021/03/17 00:50:14;;;;;;;;;;;;;;;16.11;39.44;100431.66;4414611;32;19980;-55
2021/03/17 00:52:40;;;;;;;;;;;;;;;16.14;39.41;100437.03;4414220;32;19962;-54
2021/03/17 00:55:06;;;;;;;;;;;;;;;16.15;39.42;100433.56;4411171;32;19985;-56
2021/03/17 00:57:32;;;;;;;;;;;;;;;16.19;39.36;100439.81;4415009;32;20394;-55
2021/03/17 00:59:58;;;;;;;;;;;;;;;16.14;39.42;100442.28;4414410;32;20006;-55
2021/03/17 01:02:24;;;;;;;;;;;;;;;16.19;39.32;100439.81;4412504;32;19958;-52
2021/03/17 01:04:50;;;;;;;;;;;;;;;16.24;39.10;100439.09;4413595;32;19966;-54
2021/03/17 01:07:16;;;;;;;;;;;;;;;16.21;39.21;100443.34;4414329;32;20021;-54
2021/03/17 01:09:42;;;;;;;;;;;;;;;16.26;39.10;100442.66;4414045;32;19957;-54
2021/03/17 01:12:09;;;;;;;;;;;;;;;16.20;39.21;100437.19;4414302;32;20006;-56
2021/03/17 01:14:35;;;;;;;;;;;;;;;16.26;39.21;100442.66;4413476;32;19958;-55
2021/03/17 01:17:01;;;;;;;;;;;;;;;16.27;39.16;100441.81;4412232;32;19977;-56
2021/03/17 01:19:27;;;;;;;;;;;;;;;16.33;39.00;100442.81;4412042;32;20501;-52
2021/03/17 01:21:53;;;;;;;;;;;;;;;16.23;39.22;100439.91;4413043;32;19958;-55
2021/03/17 01:24:19;;;;;;;;;;;;;;;16.22;39.29;100443.38;4413215;32;19957;-56
2021/03/17 01:26:45;;;;;;;;;;;;;;;16.29;39.06;100433.94;4413889;32;19979;-55
2021/03/17 01:29:11;;;;;;;;;;;;;;;16.26;39.00;100437.41;4412695;32;19968;-55
2021/03/17 01:31:37;;;;;;;;;;;;;;;16.22;39.23;100443.38;4418022;32;20330;-56
2021/03/17 01:34:02;;;;;;;;;;;;;;;16.20;39.25;100442.44;4416917;32;19954;-55
2021/03/17 01:36:28;;;;;;;;;;;;;;;16.13;39.39;100441.38;4416170;32;19978;-56
2021/03/17 01:38:55;;;;;;;;;;;;;;;16.11;39.61;100447.41;4415812;32;19960;-56
2021/03/17 01:41:20;;;;;;;;;;;;;;;16.02;39.69;100450.66;4416888;32;20884;-56
2021/03/17 01:43:46;;;;;;;;;;;;;;;16.04;39.61;100448.97;4417527;32;20004;-55
2021/03/17 01:46:12;;;;;;;;;;;;;;;16.04;39.59;100448.97;4417649;32;20350;-56
2021/03/17 01:48:38;;;;;;;;;;;;;;;16.02;39.71;100448.94;4415792;32;19973;-56
2021/03/17 01:51:04;;;;;;;;;;;;;;;16.17;39.33;100452.88;4416811;32;20024;-53
2021/03/17 01:53:30;;;;;;;;;;;;;;;16.15;39.33;100450.19;4417479;32;19962;-55
2021/03/17 01:55:56;;;;;;;;;;;;;;;16.24;39.23;100454.88;4416774;32;19991;-54
2021/03/17 01:58:22;;;;;;;;;;;;;;;16.19;39.33;100456.44;4414804;32;19980;-53
2021/03/17 02:00:48;;;;;;;;;;;;;;;16.18;39.26;100456.41;4418631;32;19950;-56
2021/03/17 02:03:13;;;;;;;;;;;;;;;16.23;39.30;100453.06;4417103;32;19997;-55
2021/03/17 02:05:40;;;;;;;;;;;;;;;16.19;39.34;100450.31;4416519;32;19969;-54
2021/03/17 02:08:05;;;;;;;;;;;;;;;16.17;39.46;100452.88;4413313;32;19958;-53
2021/03/17 02:10:31;;;;;;;;;;;;;;;16.15;39.50;100459.81;4416063;32;20004;-54
2021/03/17 02:12:57;;;;;;;;;;;;;;;16.09;39.60;100449.09;4416173;32;19954;-55
2021/03/17 02:15:23;;;;;;;;;;;;;;;16.17;39.47;100452.88;4416942;32;20052;-54
2021/03/17 02:17:49;;;;;;;;;;;;;;;16.07;39.59;100450.81;4416932;32;20015;-56
2021/03/17 02:20:15;;;;;;;;;;;;;;;16.04;39.78;100450.72;4415360;32;19961;-56
2021/03/17 02:22:41;;;;;;;;;;;;;;;16.06;39.71;100454.28;4416814;32;19954;-54
2021/03/17 02:25:07;;;;;;;;;;;;;;;16.03;40.05;100452.44;4415686;32;21230;-56
2021/03/17 02:27:33;;;;;;;;;;;;;;;16.02;39.87;100446.31;4416477;32;19958;-56
2021/03/17 02:29:58;;;;;;;;;;;;;;;16.01;39.79;100457.66;4415210;32;19950;-56
2021/03/17 02:32:24;;;;;;;;;;;;;;;15.98;39.87;100462.78;4416326;32;19954;-56
2021/03/17 02:34:50;;;;;;;;;;;;;;;16.00;39.80;100460.22;4417783;32;19958;-56
2021/03/17 02:37:16;;;;;;;;;;;;;;;15.97;39.86;100461.00;4414390;32;19970;-54
2021/03/17 02:39:42;;;;;;;;;;;;;;;16.01;39.94;100456.75;4417959;32;19966;-55
2021/03/17 02:42:08;;;;;;;;;;;;;;;15.91;39.89;100458.19;4415631;32;19954;-52
2021/03/17 02:44:34;;;;;;;;;;;;;;;15.95;39.99;100460.06;4415509;32;19969;-56
2021/03/17 02:47:00;;;;;;;;;;;;;;;15.95;39.90;100457.44;4415998;32;20434;-53
2021/03/17 02:49:26;;;;;;;;;;;;;;;16.00;39.70;100455.88;4415844;32;20015;-54
2021/03/17 02:51:53;;;;;;;;;;;;;;;15.99;39.72;100448.84;4415432;32;19972;-55
2021/03/17 02:54:19;;;;;;;;;;;;;;;15.98;39.85;100457.53;4414819;32;20005;-56
2021/03/17 02:56:45;;;;;;;;;;;;;;;15.95;39.97;100464.47;4417162;32;19972;-55
2021/03/17 02:59:11;;;;;;;;;;;;;;;15.98;39.94;100461.91;4415474;32;19959;-55
2021/03/17 03:01:37;;;;;;;;;;;;;;;15.95;39.91;100462.69;4415326;32;19977;-56
2021/03/17 03:04:03;;;;;;;;;;;;;;;16.00;39.85;100463.75;4414362;32;20006;-52
2021/03/17 03:06:29;;;;;;;;;;;;;;;15.99;39.71;100464.59;4415898;32;20005;-54
2021/03/17 03:08:55;;;;;;;;;;;;;;;16.01;39.82;100467.25;4415578;32;20554;-55
2021/03/17 03:11:21;;;;;;;;;;;;;;;16.04;39.69;100466.47;4413815;32;19965;-56
2021/03/17 03:13:47;;;;;;;;;;;;;;;15.97;39.83;100466.25;4415189;32;20009;-53
2021/03/17 03:16:13;;;;;;;;;;;;;;;15.93;39.84;100477.53;4415159;32;19958;-55
2021/03/17 03:18:39;;;;;;;;;;;;;;;15.90;39.87;100469.56;4416965;32;19946;-54
2021/03/17 03:21:05;;;;;;;;;;;;;;;16.00;39.67;100470.72;4414633;32;19954;-54
2021/03/17 03:23:31;;;;;;;;;;;;;;;16.04;39.64;100483.12;4414505;32;20033;-55
2021/03/17 03:25:56;;;;;;;;;;;;;;;16.01;39.76;100483.94;4415131;32;19993;-55
2021/03/17 03:28:22;;;;;;;;;;;;;;;15.97;39.82;100475.91;4414836;32;20045;-55
2021/03/17 03:30:48;;;;;;;;;;;;;;;16.05;39.79;100478.75;4414834;32;20324;-56
2021/03/17 03:33:14;;;;;;;;;;;;;;;16.07;39.65;100477.97;4415040;32;19980;-56
2021/03/17 03:35:40;;;;;;;;;;;;;;;15.99;39.66;100480.38;4414571;32;20291;-55
2021/03/17 03:38:06;;;;;;;;;;;;;;;16.04;39.69;100482.25;4414823;32;19981;-55
2021/03/17 03:40:32;;;;;;;;;;;;;;;15.98;39.74;100483.81;4416852;32;19954;-55
2021/03/17 03:42:58;;;;;;;;;;;;;;;16.01;39.72;100486.56;4415174;32;19966;-55
2021/03/17 03:45:24;;;;;;;;;;;;;;;16.08;39.70;100481.47;4414640;32;19962;-53
2021/03/17 03:47:49;;;;;;;;;;;;;;;16.02;39.69;100484.81;4414486;32;19961;-55
2021/03/17 03:50:15;;;;;;;;;;;;;;;16.06;39.66;100480.53;4414852;32;19969;-55
2021/03/17 03:52:41;;;;;;;;;;;;;;;16.02;39.91;100482.19;4414627;32;20341;-54
2021/03/17 03:55:07;;;;;;;;;;;;;;;16.02;39.69;100480.47;4414971;32;19962;-55
2021/03/17 03:57:33;;;;;;;;;;;;;;;15.97;39.81;100491.66;4413643;32;20620;-53
2021/03/17 03:59:59;;;;;;;;;;;;;;;15.97;39.70;100476.78;4411351;32;19954;-55
2021/03/17 04:02:25;;;;;;;;;;;;;;;15.97;39.80;100486.41;4412514;32;20360;-54
2021/03/17 04:04:51;;;;;;;;;;;;;;;16.00;39.77;100487.41;4413879;32;19988;-56
2021/03/17 04:07:17;;;;;;;;;;;;;;;15.99;39.71;100480.38;4411494;32;19990;-54
2021/03/17 04:09:43;;;;;;;;;;;;;;;16.05;39.72;100478.75;4414434;32;19954;-54
2021/03/17 04:12:08;;;;;;;;;;;;;;;16.04;39.77;100482.25;4414386;32;19958;-53
2021/03/17 04:14:34;;;;;;;;;;;;;;;15.99;39.68;100479.47;4413308;32;20589;-55
2021/03/17 04:17:01;;;;;;;;;;;;;;;15.97;39.82;100482.03;4414041;32;20004;-55
2021/03/17 04:19:26;;;;;;;;;;;;;;;16.01;39.84;100486.56;4415605;32;19950;-55
2021/03/17 04:21:52;;;;;;;;;;;;;;;15.93;39.93;100490.66;4400180;32;20018;-54
2021/03/17 04:24:18;;;;;;;;;;;;;;;15.97;40.01;100497.78;4411667;32;19968;-54
2021/03/17 04:26:44;;;;;;;;;;;;;;;15.96;39.75;100501.25;4412556;32;19972;-54
2021/03/17 04:29:10;;;;;;;;;;;;;;;15.96;39.75;100501.25;4413897;32;19966;-55
2021/03/17 04:31:36;;;;;;;;;;;;;;;15.94;40.00;100497.69;4415350;32;19954;-55
2021/03/17 04:34:02;;;;;;;;;;;;;;;15.94;39.91;100510.81;4412656;32;20401;-56
2021/03/17 04:36:28;;;;;;;;;;;;;;;15.92;39.93;100509.88;4412575;32;20369;-55
2021/03/17 04:38:54;;;;;;;;;;;;;;;15.92;39.93;100508.97;4414010;32;19995;-55
2021/03/17 04:41:20;;;;;;;;;;;;;;;15.92;40.01;100507.25;4414019;32;20306;-56
2021/03/17 04:43:45;;;;;;;;;;;;;;;15.89;40.22;100504.50;4412997;32;19950;-55
2021/03/17 04:46:11;;;;;;;;;;;;;;;15.86;40.12;100500.03;4414436;32;20271;-53
2021/03/17 04:48:37;;;;;;;;;;;;;;;15.88;40.10;100507.97;4412000;32;19958;-51
2021/03/17 04:51:03;;;;;;;;;;;;;;;15.88;39.97;100503.59;4413667;32;19960;-55
2021/03/17 04:53:29;;;;;;;;;;;;;;;15.84;39.98;100506.97;4414900;32;19957;-56
2021/03/17 04:55:55;;;;;;;;;;;;;;;15.75;40.14;100501.41;4412730;32;20302;-55
2021/03/17 04:58:21;;;;;;;;;;;;;;;15.75;40.48;100504.03;4413147;32;19997;-55
2021/03/17 05:00:47;;;;;;;;;;;;;;;15.88;40.08;100503.59;4412301;32;20004;-56
2021/03/17 05:03:13;;;;;;;;;;;;;;;15.81;40.17;100505.97;4414018;32;20011;-55
2021/03/17 05:05:39;;;;;;;;;;;;;;;15.86;39.94;100510.53;4414378;32;19977;-55
2021/03/17 05:08:05;;;;;;;;;;;;;;;15.85;40.09;100508.75;4413002;32;19962;-56
2021/03/17 05:10:31;;;;;;;;;;;;;;;15.89;40.13;100520.28;4412910;32;20015;-54
2021/03/17 05:12:57;;;;;;;;;;;;;;;15.87;40.09;100511.44;4412463;32;19993;-54
2021/03/17 05:15:23;;;;;;;;;;;;;;;15.92;40.01;100516.84;4413994;32;20059;-55
2021/03/17 05:17:49;;;;;;;;;;;;;;;15.83;40.14;100505.19;4412234;32;19946;-55
2021/03/17 05:20:15;;;;;;;;;;;;;;;15.82;40.13;100511.28;4412964;32;19977;-55
2021/03/17 05:22:40;;;;;;;;;;;;;;;15.91;40.01;100508.09;4415408;32;20006;-55
2021/03/17 05:25:06;;;;;;;;;;;;;;;15.89;40.19;100501.87;4413846;32;19989;-55
2021/03/17 05:27:33;;;;;;;;;;;;;;;15.82;40.08;100513.00;4413541;32;19977;-55
2021/03/17 05:29:58;;;;;;;;;;;;;;;15.85;40.15;100515.72;4415681;32;20000;-54
2021/03/17 05:32:24;;;;;;;;;;;;;;;15.93;39.94;100511.66;4415426;32;20331;-55
2021/03/17 05:34:50;;;;;;;;;;;;;;;15.83;40.11;100514.78;4413210;32;19947;-55
2021/03/17 05:37:16;;;;;;;;;;;;;;;15.80;40.21;100520.81;4413072;32;19982;-55
2021/03/17 05:39:42;;;;;;;;;;;;;;;15.79;40.22;100518.16;4414564;32;20313;-55
2021/03/17 05:42:08;;;;;;;;;;;;;;;15.76;40.33;100513.69;4412765;32;20012;-56
2021/03/17 05:44:34;;;;;;;;;;;;;;;15.70;40.43;100524.00;4410851;32;19973;-55
2021/03/17 05:46:59;;;;;;;;;;;;;;;15.72;40.47;100520.56;4413344;32;19954;-55
2021/03/17 05:49:26;;;;;;;;;;;;;;;15.76;40.40;100526.81;4414583;32;19966;-54
2021/03/17 05:51:52;;;;;;;;;;;;;;;15.80;40.24;100530.47;4414764;32;20005;-55
2021/03/17 05:54:18;;;;;;;;;;;;;;;15.78;40.19;100521.63;4413762;32;19943;-54
2021/03/17 05:56:44;;;;;;;;;;;;;;;15.85;40.33;100528.87;4414090;32;19946;-55
2021/03/17 05:59:10;;;;;;;;;;;;;;;15.86;40.00;100530.66;4411559;32;19956;-56
2021/03/17 06:01:35;;;;;;;;;;;;;;;15.85;40.13;100540.28;4411059;32;19977;-54
2021/03/17 06:04:01;;;;;;;;;;;;;;;15.88;40.05;100556.13;4412624;32;19976;-54
2021/03/17 06:06:27;;;;;;;;;;;;;;;15.83;40.05;100556.81;4414118;32;19950;-55
2021/03/17 06:08:54;;;;;;;;;;;;;;;15.88;39.97;100555.25;4414439;32;19985;-56
2021/03/17 06:11:20;;;;;;;;;;;;;;;15.79;40.18;100565.44;4414720;32;19946;-55
2021/03/17 06:13:46;;;;;;;;;;;;;;;15.87;40.13;100558.72;4414592;32;20015;-55
2021/03/17 06:16:12;;;;;;;;;;;;;;;15.86;40.14;100562.16;4415728;32;19958;-56
2021/03/17 06:18:38;;;;;;;;;;;;;;;15.83;40.14;100557.72;4416696;32;20019;-55
2021/03/17 06:21:04;;;;;;;;;;;;;;;15.84;40.02;100563.84;4416622;32;19994;-55
2021/03/17 06:23:30;;;;;;;;;;;;;;;15.82;40.15;100565.53;4417720;32;19954;-56
2021/03/17 06:25:56;;;;;;;;;;;;;;;15.85;40.12;100563.91;4417676;32;20189;-55
2021/03/17 06:28:22;;;;;;;;;;;;;;;15.87;39.95;100570.09;4416910;32;20010;-56
2021/03/17 06:30:48;;;;;;;;;;;;;;;15.83;40.20;100562.97;4417399;32;20006;-55
2021/03/17 06:33:14;;;;;;;;;;;;;;;15.74;40.32;100560.94;4416646;32;19954;-55
2021/03/17 06:35:40;;;;;;;;;;;;;;;15.84;40.15;100575.25;4417501;32;20060;-56
2021/03/17 06:38:05;;;;;;;;;;;;;;;15.87;40.04;100562.22;4417177;32;19986;-55
2021/03/17 06:40:32;;;;;;;;;;;;;;;15.93;39.92;100564.19;4417031;32;19949;-55
2021/03/17 06:42:57;;;;;;;;;;;;;;;15.96;39.86;100563.41;4414681;32;19953;-55
2021/03/17 06:45:23;;;;;;;;;;;;;;;15.84;40.21;100563.84;4416792;32;20063;-56
2021/03/17 06:47:49;;;;;;;;;;;;;;;15.81;40.34;100558.50;4416151;32;19964;-55
2021/03/17 06:50:15;;;;;;;;;;;;;;;15.70;40.61;100561.63;4416162;32;20012;-57
2021/03/17 06:52:41;;;;;;;;;;;;;;;15.75;40.51;100564.44;4413991;32;19970;-52
2021/03/17 06:55:07;;;;;;;;;;;;;;;15.77;40.42;100557.50;4416775;32;19951;-55
2021/03/17 06:57:33;;;;;;;;;;;;;;;15.51;41.01;100559.22;4417015;32;20007;-55
2021/03/17 06:59:59;;;;;;;;;;;;;;;15.56;40.93;100566.44;4416581;32;19950;-56
2021/03/17 07:02:25;;;;;;;;;;;;;;;15.52;41.00;100566.25;4416127;32;19993;-55
2021/03/17 07:04:51;;;;;;;;;;;;;;;15.38;41.39;100574.53;4416302;32;20265;-53
2021/03/17 07:07:20;;;;;;;;;;;;;;;15.27;41.72;100570.62;4416514;32;19997;-56
2021/03/17 07:09:46;;;;;;;;;;;;;;;15.31;41.66;100577.78;4416185;32;20000;-55
2021/03/17 07:12:12;;;;;;;;;;;;;;;15.35;41.63;100574.41;4416529;32;19962;-55
2021/03/17 07:14:38;;;;;;;;;;;;;;;15.39;41.57;100565.81;4416302;32;20331;-56
2021/03/17 07:17:04;;;;;;;;;;;;;;;15.41;41.51;100574.66;4415612;32;19965;-56
2021/03/17 07:19:30;;;;;;;;;;;;;;;15.36;41.67;100568.31;4413207;32;19953;-53
2021/03/17 07:21:56;;;;;;;;;;;;;;;15.31;41.80;100562.03;4416496;32;19942;-55
2021/03/17 07:24:22;;;;;;;;;;;;;;;15.48;41.42;100567.88;4415166;32;19954;-55
2021/03/17 07:26:47;;;;;;;;;;;;;;;15.45;41.45;100571.28;4416338;32;20354;-55
2021/03/17 07:29:15;;;;;;;;;;;;;;;15.54;41.29;100573.34;4416742;32;19989;-56
2021/03/17 07:31:41;;;;;;;;;;;;;;;15.52;41.35;100572.37;4417083;32;20783;-55
2021/03/17 07:34:07;;;;;;;;;;;;;;;15.60;41.10;100568.31;4415269;32;20005;-55
2021/03/17 07:36:33;;;;;;;;;;;;;;;15.55;41.25;100564.62;4417318;32;20005;-56
2021/03/17 07:38:59;;;;;;;;;;;;;;;15.56;41.29;100573.41;4416513;32;20000;-56
2021/03/17 07:41:25;;;;;;;;;;;;;;;15.56;41.27;100569.06;4416293;32;19958;-55
2021/03/17 07:43:51;;;;;;;;;;;;;;;15.53;41.34;100568.91;4409813;32;19965;-55
2021/03/17 07:46:17;;;;;;;;;;;;;;;15.59;41.26;100563.00;4413463;32;19990;-55
2021/03/17 07:48:43;;;;;;;;;;;;;;;15.60;41.22;100570.03;4414166;32;19949;-54
2021/03/17 07:51:09;;;;;;;;;;;;;;;15.61;41.18;100561.31;4414218;32;19954;-56
2021/03/17 07:53:35;;;;;;;;;;;;;;;15.68;41.04;100568.59;4415538;32;19983;-56
2021/03/17 07:56:01;;;;;;;;;;;;;;;15.66;41.10;100565.00;4415011;32;20369;-56
2021/03/17 07:58:27;;;;;;;;;;;;;;;15.71;41.00;100565.19;4412671;32;19954;-55
2021/03/17 08:00:53;;;;;;;;;;;;;;;15.78;40.85;100569.78;4415142;32;20863;-55
2021/03/17 08:03:18;;;;;;;;;;;;;;;15.74;40.90;100574.06;4414441;32;19960;-56
2021/03/17 08:05:44;;;;;;;;;;;;;;;15.69;41.07;100570.38;4414264;32;19973;-53
2021/03/17 08:08:11;;;;;;;;;;;;;;;15.70;41.03;100572.16;4414603;32;19995;-56
2021/03/17 08:10:36;;;;;;;;;;;;;;;15.77;40.94;100572.37;4415068;32;20059;-55
2021/03/17 08:13:02;;;;;;;;;;;;;;;15.78;40.94;100574.16;4414421;32;19954;-55
2021/03/17 08:15:28;;;;;;;;;;;;;;;15.93;40.62;100576.47;4413815;32;19978;-56
2021/03/17 08:17:54;;;;;;;;;;;;;;;15.97;40.54;100571.34;4413542;32;20399;-55
2021/03/17 08:20:20;;;;;;;;;;;;;;;15.88;40.73;100571.00;4414515;32;19973;-54
2021/03/17 08:22:46;;;;;;;;;;;;;;;16.00;40.49;100566.22;4414447;32;19994;-56
2021/03/17 08:25:12;;;;;;;;;;;;;;;15.90;40.71;100574.62;4414066;32;19990;-56
2021/03/17 08:27:38;;;;;;;;;;;;;;;15.85;40.84;100573.50;4413843;32;20118;-54
2021/03/17 08:30:04;;;;;;;;;;;;;;;15.85;40.84;100570.88;4413577;32;19958;-54
2021/03/17 08:32:30;;;;;;;;;;;;;;;15.90;40.77;100564.09;4414538;32;19958;-56
2021/03/17 08:34:56;;;;;;;;;;;;;;;15.87;40.83;100569.22;4414439;32;20029;-56
2021/03/17 08:37:22;;;;;;;;;;;;;;;16.02;40.52;100568.87;4413241;32;20027;-56
2021/03/17 08:39:48;;;;;;;;;;;;;;;16.01;40.55;100567.09;4413980;32;19947;-56
2021/03/17 08:42:14;;;;;;;;;;;;;;;16.02;40.56;100568.87;4413804;32;19962;-56
2021/03/17 08:44:40;;;;;;;;;;;;;;;16.03;40.51;100565.41;4413442;32;20011;-57
2021/03/17 08:47:06;;;;;;;;;;;;;;;15.99;40.63;100560.88;4412981;32;20014;-56
2021/03/17 08:49:33;;;;;;;;;;;;;;;16.06;40.50;100565.53;4414273;32;19954;-55
2021/03/17 08:51:59;;;;;;;;;;;;;;;16.11;40.37;100568.28;4414247;32;19980;-55
2021/03/17 08:54:25;;;;;;;;;;;;;;;16.11;40.42;100573.53;4414289;32;20013;-56
2021/03/17 08:56:50;;;;;;;;;;;;;;;16.16;40.32;100558.81;4411936;32;19950;-56
2021/03/17 08:59:17;;;;;;;;;;;;;;;16.08;40.57;100569.09;4403364;32;19998;-55
2021/03/17 09:01:42;;;;;;;;;;;;;;;16.14;40.46;100568.41;4399220;32;19995;-56
2021/03/17 09:04:08;;;;;;;;;;;;;;;16.23;40.30;100573.06;4397794;32;19967;-56
2021/03/17 09:06:34;;;;;;;;;;;;;;;16.20;40.39;100570.34;4398528;32;19954;-56
2021/03/17 09:09:01;;;;;;;;;;;;;;;16.20;40.44;100567.72;4405487;32;19992;-56
2021/03/17 09:11:27;;;;;;;;;;;;;;;16.20;40.42;100571.22;4413339;32;19993;-54
2021/03/17 09:13:54;;;;;;;;;;;;;;;16.27;40.31;100570.56;4413523;32;19958;-55
2021/03/17 09:16:20;;;;;;;;;;;;;;;16.27;40.32;100573.22;4413346;32;20027;-54
2021/03/17 09:18:46;;;;;;;;;;;;;;;16.26;40.37;100578.41;4413497;32;19958;-56
2021/03/17 09:21:12;;;;;;;;;;;;;;;16.31;40.25;100566.31;4412893;32;19999;-56
2021/03/17 09:23:38;;;;;;;;;;;;;;;16.35;40.17;100567.28;4411487;32;19954;-55
2021/03/17 09:26:04;;;;;;;;;;;;;;;16.38;40.19;100567.41;4414118;32;19962;-55
2021/03/17 09:28:29;;;;;;;;;;;;;;;16.39;40.18;100563.94;4411105;32;19962;-56
2021/03/17 09:30:56;;;;;;;;;;;;;;;16.27;40.43;100570.56;4412663;32;19954;-55
2021/03/17 09:33:22;;;;;;;;;;;;;;;16.40;40.18;100563.97;4413357;32;19976;-53
2021/03/17 09:35:48;;;;;;;;;;;;;;;16.37;40.22;100565.63;4412913;32;19950;-55
2021/03/17 09:38:14;;;;;;;;;;;;;;;16.42;40.16;100570.19;4412752;32;20005;-55
2021/03/17 09:40:40;;;;;;;;;;;;;;;16.48;40.04;100564.19;4414107;32;19950;-56
2021/03/17 09:43:06;;;;;;;;;;;;;;;16.49;40.04;100563.38;4408678;32;20640;-56
2021/03/17 09:45:34;;;;;;;;;;;;;;;16.51;39.94;100559.06;4412291;32;19953;-56
2021/03/17 09:48:00;;;;;;;;;;;;;;;16.50;40.08;100561.63;4408922;32;19968;-55
2021/03/17 09:50:26;;;;;;;;;;;;;;;16.52;40.04;100563.47;4413588;32;19950;-56
2021/03/17 09:52:53;;;;;;;;;;;;;;;16.53;39.99;100562.63;4416414;32;19954;-56
2021/03/17 09:55:19;;;;;;;;;;;;;;;16.57;39.88;100553.97;4414710;32;19964;-55
2021/03/17 09:57:46;;;;;;;;;;;;;;;16.53;40.05;100554.75;4416514;32;19965;-56
2021/03/17 10:00:12;;;;;;;;;;;;;;;16.59;39.99;100543.53;4415411;32;19962;-56
2021/03/17 10:02:38;;;;;;;;;;;;;;;16.63;39.94;100547.16;4416581;32;19962;-56
2021/03/17 10:05:04;;;;;;;;;;;;;;;16.56;40.11;100553.94;4414503;32;20029;-56
2021/03/17 10:07:29;;;;;;;;;;;;;;;16.57;40.13;100553.09;4416345;32;19957;-56
2021/03/17 10:09:55;;;;;;;;;;;;;;;16.62;40.11;100566.41;4414980;32;19942;-56
2021/03/17 10:12:21;;;;;;;;;;;;;;;16.37;39.78;100560.38;4414291;32;19954;-53
2021/03/17 10:14:47;;;;;;;;;;;;;;;16.09;40.09;100554.19;4413632;32;19958;-56
2021/03/17 10:17:13;;;;;;;;;;;;;;;16.23;40.39;100550.28;4414829;32;19958;-57
2021/03/17 10:19:39;;;;;;;;;;;;;;;16.12;40.62;100554.31;4413712;32;20028;-57
2021/03/17 10:22:05;;;;;;;;;;;;;;;16.33;40.40;100555.84;4414665;32;19962;-56
2021/03/17 10:24:31;;;;;;;;;;;;;;;16.29;40.55;100552.22;4415633;32;20014;-54
2021/03/17 10:26:57;;;;;;;;;;;;;;;16.13;40.88;100564.00;4414802;32;20001;-57
2021/03/17 10:29:23;;;;;;;;;;;;;;;15.96;41.32;100564.28;4414628;32;20049;-57
2021/03/17 10:31:49;;;;;;;;;;;;;;;15.87;41.66;100562.22;4416046;32;19962;-55
2021/03/17 10:34:15;;;;;;;;;;;;;;;16.01;41.46;100557.47;4407439;32;20014;-54
2021/03/17 10:36:41;;;;;;;;;;;;;;;16.15;41.25;100557.03;4399659;32;20018;-55
2021/03/17 10:39:06;;;;;;;;;;;;;;;16.29;41.10;100542.59;4404571;32;20001;-55
2021/03/17 10:41:32;;;;;;;;;;;;;;;16.09;41.49;100546.31;4415794;32;20359;-57
2021/03/17 10:43:58;;;;;;;;;;;;;;;16.33;41.12;100534.81;4410749;32;19982;-57
2021/03/17 10:46:24;;;;;;;;;;;;;;;16.37;41.06;100534.09;4413127;32;19998;-58
2021/03/17 10:48:50;;;;;;;;;;;;;;;16.55;40.28;100532.00;4414594;32;19958;-56
2021/03/17 10:51:16;;;;;;;;;;;;;;;16.39;40.69;100537.66;4412698;32;20142;-54
2021/03/17 10:53:42;;;;;;;;;;;;;;;16.65;40.40;100529.66;4414807;32;20321;-56
2021/03/17 10:56:08;;;;;;;;;;;;;;;16.66;40.50;100531.44;4412693;32;20433;-55
2021/03/17 10:58:34;;;;;;;;;;;;;;;16.55;40.74;100526.75;4413677;32;19955;-54
2021/03/17 11:01:00;;;;;;;;;;;;;;;16.57;40.84;100526.81;4413524;32;19981;-51
2021/03/17 11:03:26;;;;;;;;;;;;;;;16.46;41.17;100536.09;4415408;32;19993;-51
2021/03/17 11:05:52;;;;;;;;;;;;;;;16.69;40.88;100528.91;4414811;32;19958;-56
2021/03/17 11:08:18;;;;;;;;;;;;;;;16.72;41.05;100527.28;4414573;32;19989;-56
2021/03/17 11:10:46;;;;;;;;;;;;;;;16.68;41.11;100535.03;4412857;32;19958;-57
2021/03/17 11:13:12;;;;;;;;;;;;;;;16.51;41.51;100537.12;4413319;32;20378;-56
2021/03/17 11:15:37;;;;;;;;;;;;;;;16.69;41.69;100550.84;4414731;32;19971;-57
2021/03/17 11:18:03;;;;;;;;;;;;;;;16.66;41.64;100569.13;4413760;32;19950;-55
2021/03/17 11:20:29;;;;;;;;;;;;;;;16.70;41.86;100564.88;4415033;32;19978;-58
2021/03/17 11:22:55;;;;;;;;;;;;;;;16.79;41.49;100575.69;4415459;32;19957;-57
2021/03/17 11:25:21;;;;;;;;;;;;;;;16.79;41.46;100570.41;4414366;32;20465;-59
2021/03/17 11:27:47;;;;;;;;;;;;;;;16.64;41.91;100564.69;4412480;32;20111;-58
2021/03/17 11:30:13;;;;;;;;;;;;;;;16.69;42.02;100555.19;4413767;32;19958;-57
2021/03/17 11:32:39;;;;;;;;;;;;;;;16.74;42.05;100551.00;4415905;32;20282;-58
2021/03/17 11:35:04;;;;;;;;;;;;;;;16.77;42.09;100558.97;4415032;32;19955;-57
2021/03/17 11:37:30;;;;;;;;;;;;;;;16.84;42.01;100557.41;4414811;32;19978;-58
2021/03/17 11:39:56;;;;;;;;;;;;;;;16.96;41.87;100551.59;4415739;32;20031;-52
2021/03/17 11:42:22;;;;;;;;;;;;;;;17.02;41.67;100551.84;4415393;32;20148;-56
2021/03/17 11:44:48;;;;;;;;;;;;;;;17.20;41.33;100551.47;4415173;32;19969;-54
2021/03/17 11:47:14;;;;;;;;;;;;;;;17.36;41.05;100552.81;4414025;32;20303;-56
2021/03/17 11:49:40;;;;;;;;;;;;;;;17.39;41.03;100547.62;4408882;32;19990;-57
2021/03/17 11:52:06;;;;;;;;;;;;;;;17.47;40.99;100546.91;4414911;32;19955;-55
2021/03/17 11:54:32;;;;;;;;;;;;;;;17.61;40.76;100542.94;4415716;32;19970;-57
2021/03/17 11:56:58;;;;;;;;;;;;;;;17.64;40.65;100547.38;4414672;32;20036;-58
2021/03/17 11:59:24;;;;;;;;;;;;;;;17.56;40.67;100549.81;4414221;32;20312;-55
2021/03/17 12:01:50;;;;;;;;;;;;;;;17.51;40.91;100543.53;4408119;32;19968;-53
2021/03/17 12:04:16;;;;;;;;;;;;;;;17.51;40.97;100541.78;4414802;32;19957;-56
2021/03/17 12:06:42;;;;;;;;;;;;;;;17.56;40.92;100547.16;4414194;32;19958;-55
2021/03/17 12:09:08;;;;;;;;;;;;;;;17.62;40.71;100555.25;4412980;32;19993;-53
2021/03/17 12:11:35;;;;;;;;;;;;;;;17.65;40.60;100557.94;4414558;32;19946;-55
2021/03/17 12:14:01;;;;;;;;;;;;;;;17.72;40.57;100552.84;4414281;32;19958;-55
2021/03/17 12:16:27;;;;;;;;;;;;;;;17.77;40.40;100538.06;4415235;32;19954;-57
2021/03/17 12:18:53;;;;;;;;;;;;;;;17.77;40.52;100543.31;4411848;32;20367;-56
2021/03/17 12:21:18;;;;;;;;;;;;;;;17.77;40.51;100543.31;4414955;32;19962;-52
2021/03/17 12:23:44;;;;;;;;;;;;;;;17.81;40.44;100539.91;4416164;32;19947;-56
2021/03/17 12:26:10;;;;;;;;;;;;;;;17.88;40.28;100536.59;4413855;32;19946;-56
2021/03/17 12:28:36;;;;;;;;;;;;;;;17.92;40.16;100545.47;4415477;32;19953;-55